createdAt,value
2018-07-22T00:00:33.920Z,20.77
2018-07-22T00:03:03.358Z,22.13
2018-07-22T00:05:32.791Z,20.53
2018-07-22T00:08:02.215Z,16.00
2018-07-22T00:10:31.681Z,17.40
2018-07-22T00:13:01.400Z,20.47
2018-07-22T00:15:30.799Z,18.93
2018-07-22T00:18:00.192Z,23.93
2018-07-22T00:20:29.563Z,16.97
2018-07-22T00:22:58.983Z,17.97
2018-07-22T00:25:28.565Z,24.33
2018-07-22T00:27:58.789Z,16.50
2018-07-22T00:30:28.273Z,18.60
2018-07-22T00:32:57.757Z,21.23
2018-07-22T00:35:27.233Z,20.33
2018-07-22T00:37:56.620Z,21.23
2018-07-22T00:40:25.975Z,20.87
2018-07-22T00:42:55.374Z,21.30
2018-07-22T00:45:24.739Z,20.20
2018-07-22T00:47:54.212Z,20.50
2018-07-22T00:50:24.405Z,19.80
2018-07-22T00:52:53.864Z,22.50
2018-07-22T00:55:23.230Z,24.37
2018-07-22T00:57:52.744Z,22.57
2018-07-22T01:00:22.212Z,20.13
2018-07-22T01:02:52.251Z,18.43
2018-07-22T01:05:21.603Z,17.80
2018-07-22T01:07:51.534Z,18.57
2018-07-22T01:10:21.490Z,20.67
2018-07-22T01:12:50.883Z,19.97
2018-07-22T01:15:20.300Z,21.10
2018-07-22T01:17:49.746Z,18.67
2018-07-22T01:20:19.662Z,18.93
2018-07-22T01:22:49.089Z,20.83
2018-07-22T01:25:18.678Z,17.57
2018-07-22T01:27:48.059Z,17.70
2018-07-22T01:30:17.150Z,20.67
2018-07-22T01:32:46.222Z,21.60
2018-07-22T01:35:15.596Z,25.30
2018-07-22T01:37:44.953Z,26.87
2018-07-22T01:40:14.401Z,22.83
2018-07-22T01:42:43.829Z,22.50
2018-07-22T01:45:13.175Z,23.03
2018-07-22T01:47:42.607Z,24.67
2018-07-22T01:50:12.483Z,24.57
2018-07-22T01:52:42.111Z,27.60
2018-07-22T01:55:11.561Z,26.67
2018-07-22T01:57:41.582Z,22.70
2018-07-22T02:00:11.053Z,26.17
2018-07-22T02:02:40.561Z,20.67
2018-07-22T02:05:10.070Z,22.03
2018-07-22T02:07:39.606Z,19.40
2018-07-22T02:10:08.966Z,19.87
2018-07-22T02:12:38.434Z,26.87
2018-07-22T02:15:07.938Z,24.13
2018-07-22T02:17:37.422Z,30.67
2018-07-22T02:20:06.752Z,28.90
2018-07-22T02:22:36.273Z,24.40
2018-07-22T02:25:05.802Z,24.83
2018-07-22T02:27:35.155Z,26.73
2018-07-22T02:30:04.674Z,26.77
2018-07-22T02:32:34.252Z,28.70
2018-07-22T02:35:03.732Z,25.43
2018-07-22T02:37:33.329Z,28.33
2018-07-22T02:40:02.842Z,31.67
2018-07-22T02:42:32.446Z,30.60
2018-07-22T02:45:01.961Z,31.57
2018-07-22T02:47:31.461Z,38.87
2018-07-22T02:50:01.046Z,32.90
2018-07-22T02:52:30.559Z,29.93
2018-07-22T02:55:00.089Z,30.63
2018-07-22T02:57:30.597Z,31.47
2018-07-22T03:00:00.030Z,32.07
2018-07-22T03:02:29.395Z,33.77
2018-07-22T03:04:59.225Z,34.23
2018-07-22T03:07:28.631Z,39.60
2018-07-22T03:09:58.055Z,37.00
2018-07-22T03:12:28.147Z,34.37
2018-07-22T03:14:57.647Z,35.27
2018-07-22T03:17:27.027Z,43.57
2018-07-22T03:19:56.551Z,33.70
2018-07-22T03:22:26.009Z,40.23
2018-07-22T03:24:55.399Z,36.67
2018-07-22T03:27:24.900Z,33.27
2018-07-22T03:29:54.326Z,35.97
2018-07-22T03:32:23.718Z,35.67
2018-07-22T03:34:52.772Z,38.07
2018-07-22T03:37:22.133Z,41.87
2018-07-22T03:39:51.484Z,39.33
2018-07-22T03:42:20.889Z,43.80
2018-07-22T03:44:50.318Z,47.87
2018-07-22T03:47:19.869Z,50.43
2018-07-22T03:49:49.258Z,57.47
2018-07-22T03:52:19.358Z,58.10
2018-07-22T03:54:48.807Z,51.77
2018-07-22T03:57:18.234Z,48.63
2018-07-22T03:59:47.618Z,47.17
2018-07-22T04:02:17.059Z,50.23
2018-07-22T04:04:46.485Z,41.53
2018-07-22T04:07:15.956Z,34.87
2018-07-22T04:09:45.053Z,46.13
2018-07-22T04:12:14.465Z,43.30
2018-07-22T04:14:44.477Z,42.37
2018-07-22T04:17:14.081Z,39.90
2018-07-22T04:19:43.457Z,35.83
2018-07-22T04:22:12.891Z,35.50
2018-07-22T04:24:42.262Z,35.23
2018-07-22T04:27:11.733Z,37.03
2018-07-22T04:29:41.099Z,39.53
2018-07-22T04:32:10.918Z,41.60
2018-07-22T04:34:40.291Z,40.43
2018-07-22T04:37:09.745Z,39.07
2018-07-22T04:39:39.108Z,43.90
2018-07-22T04:42:08.768Z,46.13
2018-07-22T04:44:38.353Z,42.87
2018-07-22T04:47:07.824Z,39.47
2018-07-22T04:49:37.608Z,40.17
2018-07-22T04:52:07.085Z,42.70
2018-07-22T04:54:36.630Z,34.23
2018-07-22T04:57:06.022Z,34.53
2018-07-22T04:59:35.408Z,35.47
2018-07-22T05:02:04.871Z,33.03
2018-07-22T05:04:34.068Z,33.53
2018-07-22T05:07:03.502Z,30.73
2018-07-22T05:09:33.562Z,33.73
2018-07-22T05:12:03.265Z,30.17
2018-07-22T05:14:32.764Z,32.50
2018-07-22T05:17:02.761Z,39.10
2018-07-22T05:19:32.246Z,30.97
2018-07-22T05:22:01.813Z,32.87
2018-07-22T05:24:31.315Z,35.60
2018-07-22T05:27:01.427Z,36.10
2018-07-22T05:29:30.771Z,32.20
2018-07-22T05:32:00.238Z,33.87
2018-07-22T05:34:29.639Z,32.40
2018-07-22T05:36:59.037Z,26.17
2018-07-22T05:39:28.493Z,30.10
2018-07-22T05:41:58.020Z,27.57
2018-07-22T05:44:27.421Z,29.60
2018-07-22T05:46:56.879Z,28.63
2018-07-22T05:49:26.249Z,33.03
2018-07-22T05:51:55.660Z,39.07
2018-07-22T05:54:25.173Z,33.60
2018-07-22T05:56:55.150Z,31.73
2018-07-22T05:59:25.266Z,40.10
2018-07-22T06:01:54.636Z,39.53
2018-07-22T06:04:23.666Z,36.23
2018-07-22T06:06:53.025Z,27.70
2018-07-22T06:09:22.097Z,24.17
2018-07-22T06:11:51.507Z,21.80
2018-07-22T06:14:22.664Z,22.33
2018-07-22T06:16:52.803Z,22.10
2018-07-22T06:19:23.893Z,22.83
2018-07-22T06:21:54.586Z,25.53
2018-07-22T06:24:48.502Z,28.10
2018-07-22T06:27:18.341Z,30.00
2018-07-22T06:29:50.516Z,29.57
2018-07-22T06:32:33.844Z,31.40
2018-07-22T06:35:16.129Z,34.47
2018-07-22T06:37:49.154Z,30.13
2018-07-22T06:40:19.338Z,36.50
2018-07-22T06:42:48.735Z,35.43
2018-07-22T06:45:18.717Z,22.20
2018-07-22T06:47:49.687Z,21.43
2018-07-22T06:50:19.096Z,17.97
2018-07-22T06:52:49.009Z,15.93
2018-07-22T06:55:19.527Z,13.20
2018-07-22T06:57:48.914Z,14.80
2018-07-22T07:00:18.389Z,8.97
2018-07-22T07:02:48.769Z,9.60
2018-07-22T07:05:18.236Z,8.87
2018-07-22T07:07:49.383Z,8.80
2018-07-22T07:10:18.770Z,9.27
2018-07-22T07:12:48.202Z,12.17
2018-07-22T07:15:17.638Z,9.97
2018-07-22T07:17:49.666Z,12.63
2018-07-22T07:20:19.230Z,11.93
2018-07-22T07:22:51.150Z,12.70
2018-07-22T07:25:23.501Z,12.17
2018-07-22T07:27:54.210Z,11.53
2018-07-22T07:30:23.990Z,13.93
2018-07-22T07:32:54.488Z,17.27
2018-07-22T07:35:24.460Z,14.27
2018-07-22T07:37:53.831Z,19.27
2018-07-22T07:40:23.948Z,18.87
2018-07-22T07:42:54.208Z,20.77
2018-07-22T07:45:24.538Z,15.37
2018-07-22T07:47:54.614Z,14.97
2018-07-22T07:50:24.254Z,18.90
2018-07-22T07:52:54.349Z,16.43
2018-07-22T07:55:23.821Z,13.03
2018-07-22T07:57:53.370Z,15.63
2018-07-22T08:00:22.454Z,19.13
2018-07-22T08:02:52.299Z,22.20
2018-07-22T08:05:22.464Z,24.17
2018-07-22T08:07:52.244Z,22.17
2018-07-22T08:10:22.357Z,21.77
2018-07-22T08:12:51.830Z,25.47
2018-07-22T08:15:22.585Z,25.73
2018-07-22T08:17:52.880Z,27.57
2018-07-22T08:20:22.981Z,29.33
2018-07-22T08:22:52.421Z,36.40
2018-07-22T08:25:28.357Z,41.67
2018-07-22T08:27:58.993Z,29.40
2018-07-22T08:30:28.854Z,30.43
2018-07-22T08:32:59.145Z,24.93
2018-07-22T08:35:28.609Z,26.23
2018-07-22T08:37:57.953Z,21.23
2018-07-22T08:40:30.692Z,16.67
2018-07-22T08:43:00.152Z,15.60
2018-07-22T08:45:29.584Z,14.47
2018-07-22T08:48:00.481Z,13.37
2018-07-22T08:50:30.659Z,13.93
2018-07-22T08:53:00.166Z,17.33
2018-07-22T08:55:29.667Z,14.40
2018-07-22T08:57:59.652Z,18.20
2018-07-22T09:00:29.204Z,20.87
2018-07-22T09:03:14.674Z,21.53
2018-07-22T09:06:03.209Z,28.20
2018-07-22T09:08:39.282Z,30.67
2018-07-22T09:11:15.331Z,39.17
2018-07-22T09:13:45.033Z,29.17
2018-07-22T09:16:15.246Z,38.70
2018-07-22T09:18:44.964Z,32.10
2018-07-22T09:21:14.493Z,33.70
2018-07-22T09:23:44.043Z,35.07
2018-07-22T09:26:13.436Z,32.10
2018-07-22T09:28:44.020Z,25.80
2018-07-22T09:31:13.754Z,26.27
2018-07-22T09:33:43.151Z,25.47
2018-07-22T09:36:12.683Z,21.87
2018-07-22T09:38:41.968Z,21.00
2018-07-22T09:41:11.075Z,27.40
2018-07-22T09:43:40.375Z,22.77
2018-07-22T09:46:09.721Z,27.50
2018-07-22T09:48:39.168Z,26.10
2018-07-22T09:51:09.731Z,19.53
2018-07-22T09:53:40.167Z,17.67
2018-07-22T09:56:10.745Z,18.70
2018-07-22T09:58:40.788Z,20.23
2018-07-22T10:01:11.313Z,19.67
2018-07-22T10:03:40.764Z,18.50
2018-07-22T10:06:10.828Z,22.77
2018-07-22T10:08:40.456Z,19.43
2018-07-22T10:11:10.228Z,20.87
2018-07-22T10:13:39.900Z,22.87
2018-07-22T10:16:10.042Z,17.83
2018-07-22T10:18:39.811Z,19.60
2018-07-22T10:21:09.334Z,18.30
2018-07-22T10:23:39.951Z,21.40
2018-07-22T10:26:09.742Z,21.23
2018-07-22T10:28:40.128Z,19.97
2018-07-22T10:31:09.738Z,26.47
2018-07-22T10:33:39.966Z,24.37
2018-07-22T10:36:09.717Z,23.33
2018-07-22T10:38:39.208Z,25.40
2018-07-22T10:41:08.717Z,22.87
2018-07-22T10:43:38.687Z,23.73
2018-07-22T10:46:08.651Z,30.47
2018-07-22T10:48:41.081Z,33.53
2018-07-22T10:51:11.879Z,31.30
2018-07-22T10:53:41.665Z,26.73
2018-07-22T10:56:11.392Z,33.77
2018-07-22T10:58:40.801Z,35.27
2018-07-22T11:01:10.211Z,31.40
2018-07-22T11:03:40.908Z,33.67
2018-07-22T11:06:11.215Z,27.33
2018-07-22T11:08:40.617Z,35.97
2018-07-22T11:11:10.724Z,24.60
2018-07-22T11:13:40.245Z,25.67
2018-07-22T11:16:09.743Z,31.93
2018-07-22T11:18:40.621Z,26.50
2018-07-22T11:21:10.235Z,26.90
2018-07-22T11:23:39.978Z,29.57
2018-07-22T11:26:09.448Z,27.67
2018-07-22T11:28:39.485Z,28.43
2018-07-22T11:31:09.088Z,27.87
2018-07-22T11:33:38.646Z,27.87
2018-07-22T11:36:08.281Z,38.07
2018-07-22T11:38:38.323Z,34.53
2018-07-22T11:41:07.737Z,39.77
2018-07-22T11:43:37.812Z,33.23
2018-07-22T11:46:07.910Z,34.70
2018-07-22T11:48:38.239Z,17.60
2018-07-22T11:51:08.354Z,22.17
2018-07-22T11:53:39.214Z,14.63
2018-07-22T11:56:09.438Z,12.53
2018-07-22T11:58:39.647Z,14.63
2018-07-22T12:01:09.168Z,19.30
2018-07-22T12:03:38.623Z,17.70
2018-07-22T12:06:08.050Z,16.87
2018-07-22T12:08:37.750Z,17.90
2018-07-22T12:11:08.080Z,23.17
2018-07-22T12:13:37.630Z,21.13
2018-07-22T12:16:07.750Z,25.87
2018-07-22T12:18:37.302Z,19.93
2018-07-22T12:21:07.147Z,18.27
2018-07-22T12:23:36.702Z,17.23
2018-07-22T12:26:08.063Z,12.80
2018-07-22T12:28:39.304Z,11.70
2018-07-22T12:31:08.708Z,12.40
2018-07-22T12:33:38.566Z,12.73
2018-07-22T12:36:10.009Z,15.77
2018-07-22T12:38:39.384Z,18.37
2018-07-22T12:41:09.871Z,19.23
2018-07-22T12:43:39.326Z,15.60
2018-07-22T12:46:08.757Z,16.43
2018-07-22T12:48:38.197Z,15.90
2018-07-22T12:51:09.231Z,17.77
2018-07-22T12:53:41.125Z,22.63
2018-07-22T12:56:11.625Z,17.93
2018-07-22T12:58:42.132Z,13.50
2018-07-22T13:01:12.086Z,13.63
2018-07-22T13:03:43.361Z,12.27
2018-07-22T13:06:12.655Z,14.77
2018-07-22T13:08:42.191Z,15.57
2018-07-22T13:11:15.035Z,15.33
2018-07-22T13:13:44.614Z,12.03
2018-07-22T13:16:15.158Z,9.17
2018-07-22T13:18:45.267Z,8.30
2018-07-22T13:21:15.410Z,7.33
2018-07-22T13:23:45.262Z,8.43
2018-07-22T13:26:14.990Z,8.47
2018-07-22T13:28:45.280Z,7.90
2018-07-22T13:31:15.723Z,8.30
2018-07-22T13:33:45.493Z,7.10
2018-07-22T13:36:15.519Z,7.27
2018-07-22T13:38:44.917Z,7.20
2018-07-22T13:41:14.451Z,7.17
2018-07-22T13:43:44.693Z,7.17
2018-07-22T13:46:14.163Z,9.30
2018-07-22T13:48:43.281Z,8.43
2018-07-22T13:51:12.418Z,8.43
2018-07-22T13:53:41.808Z,7.83
2018-07-22T13:56:11.208Z,7.97
2018-07-22T13:58:40.751Z,9.23
2018-07-22T14:01:10.184Z,9.83
2018-07-22T14:03:39.766Z,8.73
2018-07-22T14:06:09.353Z,10.07
2018-07-22T14:08:40.323Z,8.83
2018-07-22T14:11:09.738Z,9.23
2018-07-22T14:13:39.692Z,9.10
2018-07-22T14:16:09.329Z,9.50
2018-07-22T14:18:39.415Z,9.47
2018-07-22T14:21:09.247Z,10.23
2018-07-22T14:23:39.395Z,10.20
2018-07-22T14:26:08.967Z,11.20
2018-07-22T14:28:40.160Z,11.47
2018-07-22T14:31:10.000Z,12.30
2018-07-22T14:33:39.584Z,12.10
2018-07-22T14:36:09.148Z,13.20
2018-07-22T14:38:38.868Z,15.37
2018-07-22T14:41:08.994Z,13.20
2018-07-22T14:43:38.901Z,15.77
2018-07-22T14:46:08.683Z,16.27
2018-07-22T14:48:43.838Z,13.60
2018-07-22T14:51:13.373Z,14.40
2018-07-22T14:53:42.852Z,12.37
2018-07-22T14:56:12.835Z,12.00
2018-07-22T14:58:43.266Z,15.23
2018-07-22T15:01:14.500Z,15.57
2018-07-22T15:03:44.812Z,20.23
2018-07-22T15:06:15.566Z,16.87
2018-07-22T15:08:45.606Z,15.30
2018-07-22T15:11:15.141Z,16.20
2018-07-22T15:13:45.158Z,18.40
2018-07-22T15:16:15.552Z,20.13
2018-07-22T15:18:45.044Z,15.83
2018-07-22T15:21:15.125Z,14.10
2018-07-22T15:23:44.803Z,13.43
2018-07-22T15:26:14.448Z,12.63
2018-07-22T15:28:44.055Z,13.03
2018-07-22T15:31:13.642Z,12.27
2018-07-22T15:33:43.066Z,11.87
2018-07-22T15:36:14.777Z,11.00
2018-07-22T15:38:44.693Z,11.20
2018-07-22T15:41:14.495Z,11.70
2018-07-22T15:43:44.099Z,14.63
2018-07-22T15:46:14.815Z,10.93
2018-07-22T15:48:44.287Z,10.57
2018-07-22T15:51:14.003Z,11.80
2018-07-22T15:53:44.201Z,11.87
2018-07-22T15:56:14.015Z,13.30
2018-07-22T15:58:43.429Z,13.67
2018-07-22T16:01:12.914Z,12.67
2018-07-22T16:03:42.418Z,12.60
2018-07-22T16:06:12.616Z,14.07
2018-07-22T16:08:42.122Z,13.80
2018-07-22T16:11:11.556Z,13.70
2018-07-22T16:13:41.019Z,15.07
2018-07-22T16:16:10.536Z,13.67
2018-07-22T16:18:40.076Z,14.97
2018-07-22T16:21:09.552Z,13.60
2018-07-22T16:23:39.236Z,13.97
2018-07-22T16:26:08.664Z,14.10
2018-07-22T16:28:39.836Z,13.17
2018-07-22T16:31:11.291Z,13.63
2018-07-22T16:33:41.617Z,15.73
2018-07-22T16:36:11.815Z,16.03
2018-07-22T16:38:41.414Z,14.10
2018-07-22T16:41:11.000Z,13.90
2018-07-22T16:43:40.687Z,12.60
2018-07-22T16:46:10.743Z,12.70
2018-07-22T16:48:40.689Z,12.73
2018-07-22T16:51:10.219Z,13.37
2018-07-22T16:53:40.166Z,11.67
2018-07-22T16:56:09.777Z,12.33
2018-07-22T16:58:39.314Z,11.70
2018-07-22T17:01:09.367Z,12.37
2018-07-22T17:03:38.976Z,12.80
2018-07-22T17:06:08.471Z,13.00
2018-07-22T17:08:38.025Z,14.27
2018-07-22T17:11:08.165Z,15.57
2018-07-22T17:13:37.680Z,15.83
2018-07-22T17:16:07.409Z,15.20
2018-07-22T17:18:36.778Z,16.93
2018-07-22T17:21:06.811Z,14.33
2018-07-22T17:23:35.894Z,15.97
2018-07-22T17:26:05.374Z,16.37
2018-07-22T17:28:34.812Z,16.47
2018-07-22T17:31:04.807Z,16.67
2018-07-22T17:33:34.280Z,15.27
2018-07-22T17:36:04.689Z,14.30
2018-07-22T17:38:34.239Z,13.10
2018-07-22T17:41:04.052Z,15.57
2018-07-22T17:43:33.522Z,15.70
2018-07-22T17:46:03.156Z,15.57
2018-07-22T17:48:33.145Z,15.87
2018-07-22T17:51:12.888Z,16.20
2018-07-22T17:53:46.258Z,15.90
2018-07-22T17:56:15.945Z,15.60
2018-07-22T17:58:46.687Z,18.27
2018-07-22T18:01:16.647Z,13.03
2018-07-22T18:03:46.089Z,13.60
2018-07-22T18:06:21.775Z,14.03
2018-07-22T18:08:54.852Z,13.47
2018-07-22T18:11:25.788Z,15.10
2018-07-22T18:13:56.278Z,13.77
2018-07-22T18:16:26.673Z,13.23
2018-07-22T18:18:56.270Z,13.50
2018-07-22T18:21:26.825Z,12.80
2018-07-22T18:23:57.551Z,14.27
2018-07-22T18:26:27.142Z,12.90
2018-07-22T18:28:56.403Z,13.20
2018-07-22T18:31:25.855Z,12.03
2018-07-22T18:33:55.406Z,12.97
2018-07-22T18:36:29.760Z,12.73
2018-07-22T18:39:00.024Z,12.43
2018-07-22T18:41:35.043Z,13.00
2018-07-22T18:44:05.782Z,12.93
2018-07-22T18:46:36.455Z,13.77
2018-07-22T18:49:06.513Z,13.43
2018-07-22T18:51:36.306Z,15.93
2018-07-22T18:54:07.087Z,14.03
2018-07-22T18:56:36.931Z,14.17
2018-07-22T18:59:07.885Z,14.63
2018-07-22T19:01:38.191Z,13.30
2018-07-22T19:04:07.785Z,14.07
2018-07-22T19:06:37.607Z,15.63
2018-07-22T19:09:09.995Z,14.00
2018-07-22T19:11:39.660Z,16.03
2018-07-22T19:14:09.359Z,13.93
2018-07-22T19:16:39.679Z,15.30
2018-07-22T19:19:09.888Z,14.43
2018-07-22T19:21:40.118Z,14.07
2018-07-22T19:24:10.715Z,14.27
2018-07-22T19:26:40.197Z,13.87
2018-07-22T19:29:09.781Z,14.43
2018-07-22T19:31:41.732Z,15.07
2018-07-22T19:34:12.094Z,13.70
2018-07-22T19:36:42.148Z,13.93
2018-07-22T19:39:11.691Z,16.00
2018-07-22T19:41:41.304Z,15.23
2018-07-22T19:44:11.566Z,15.13
2018-07-22T19:46:41.378Z,15.47
2018-07-22T19:49:11.808Z,15.93
2018-07-22T19:51:41.688Z,17.77
2018-07-22T19:54:12.463Z,15.37
2018-07-22T19:56:41.892Z,16.00
2018-07-22T19:59:12.980Z,14.40
2018-07-22T20:01:44.102Z,14.73
2018-07-22T20:04:15.738Z,15.73
2018-07-22T20:06:45.274Z,16.93
2018-07-22T20:09:16.869Z,15.53
2018-07-22T20:11:47.825Z,13.83
2018-07-22T20:14:17.254Z,14.70
2018-07-22T20:16:48.013Z,17.70
2018-07-22T20:19:18.394Z,17.20
2018-07-22T20:21:48.300Z,16.47
2018-07-22T20:24:17.756Z,15.70
2018-07-22T20:26:47.183Z,14.47
2018-07-22T20:29:16.721Z,16.00
2018-07-22T20:31:46.287Z,16.60
2018-07-22T20:34:16.511Z,16.30
2018-07-22T20:36:45.944Z,17.23
2018-07-22T20:39:24.913Z,15.90
2018-07-22T20:41:55.143Z,15.43
2018-07-22T20:44:25.788Z,16.67
2018-07-22T20:46:55.248Z,15.67
2018-07-22T20:49:24.651Z,16.17
2018-07-22T20:51:54.210Z,16.03
2018-07-22T20:54:23.630Z,17.63
2018-07-22T20:56:54.285Z,16.17
2018-07-22T20:59:23.679Z,16.57
2018-07-22T21:01:53.242Z,17.63
2018-07-22T21:04:23.025Z,15.77
2018-07-22T21:06:52.434Z,17.53
2018-07-22T21:09:21.894Z,17.13
2018-07-22T21:14:04.861Z,21.03
2018-07-22T21:16:34.286Z,15.77
2018-07-22T21:19:09.054Z,17.57
2018-07-22T21:21:40.655Z,17.10
2018-07-22T21:24:10.895Z,16.53
2018-07-22T21:26:40.563Z,17.63
2018-07-22T21:29:10.239Z,18.57
2018-07-22T21:31:39.748Z,18.20
2018-07-22T21:34:10.148Z,17.80
2018-07-22T21:36:43.653Z,17.97
2018-07-22T21:39:13.803Z,22.10
2018-07-22T21:41:44.802Z,20.13
2018-07-22T21:44:14.286Z,18.50
2018-07-22T21:46:44.894Z,21.57
2018-07-22T21:49:14.323Z,18.93
2018-07-22T21:51:43.816Z,23.50
2018-07-22T21:54:13.221Z,21.37
2018-07-22T21:56:43.537Z,21.73
2018-07-22T21:59:18.094Z,21.27
2018-07-22T22:01:47.642Z,21.33
2018-07-22T22:04:17.224Z,25.47
2018-07-22T22:06:46.673Z,22.70
2018-07-22T22:09:16.168Z,22.70
2018-07-22T22:11:46.196Z,24.20
2018-07-22T22:14:15.608Z,20.30
2018-07-22T22:16:45.100Z,23.30
2018-07-22T22:19:14.609Z,23.27
2018-07-22T22:21:44.046Z,18.13
2018-07-22T22:24:15.158Z,20.40
2018-07-22T22:26:44.758Z,22.77
2018-07-22T22:29:14.258Z,23.50
2018-07-22T22:31:44.345Z,26.63
2018-07-22T22:34:14.354Z,25.33
2018-07-22T22:36:43.785Z,21.10
2018-07-22T22:39:14.212Z,23.37
2018-07-22T22:41:44.105Z,20.57
2018-07-22T22:44:13.495Z,22.07
2018-07-22T22:46:44.817Z,25.23
2018-07-22T22:49:14.393Z,26.43
2018-07-22T22:51:43.541Z,27.43
2018-07-22T22:54:12.953Z,25.77
2018-07-22T22:56:42.396Z,22.50
2018-07-22T22:59:22.657Z,20.17
2018-07-22T23:01:52.109Z,23.67
2018-07-22T23:04:21.503Z,29.13
2018-07-22T23:06:50.933Z,25.23
2018-07-22T23:09:20.336Z,20.73
2018-07-22T23:11:49.737Z,23.87
2018-07-22T23:14:19.097Z,23.93
2018-07-22T23:16:48.572Z,22.47
2018-07-22T23:19:18.077Z,22.03
2018-07-22T23:21:47.439Z,19.43
2018-07-22T23:24:17.389Z,20.10
2018-07-22T23:26:46.819Z,19.33
2018-07-22T23:29:16.273Z,17.80
2018-07-22T23:31:45.753Z,20.40
2018-07-22T23:34:15.112Z,22.17
2018-07-22T23:36:44.522Z,19.43
2018-07-22T23:39:13.913Z,22.80
2018-07-22T23:41:44.026Z,20.00
2018-07-22T23:44:14.161Z,20.27
2018-07-22T23:46:43.554Z,22.47
2018-07-22T23:49:12.996Z,19.00
2018-07-22T23:51:42.358Z,20.33
2018-07-22T23:54:11.738Z,22.40
2018-07-22T23:56:42.436Z,20.17
2018-07-22T23:59:11.774Z,19.17
